createdAt,value
2023-05-22T00:03:11.707Z,6.47
2023-05-22T00:08:45.730Z,6.93
2023-05-22T00:14:09.490Z,6.13
2023-05-22T00:20:03.101Z,6.20
2023-05-22T00:31:35.284Z,3.67
2023-05-22T00:43:11.591Z,4.40
2023-05-22T00:48:25.409Z,3.42
2023-05-22T00:59:32.206Z,4.10
2023-05-22T01:17:17.283Z,3.30
2023-05-22T01:23:13.879Z,4.65
2023-05-22T01:28:57.468Z,5.15
2023-05-22T01:40:15.335Z,3.42
2023-05-22T01:45:43.801Z,1.98
2023-05-22T01:51:41.613Z,4.03
2023-05-22T01:57:23.152Z,3.70
2023-05-22T02:03:14.367Z,5.50
2023-05-22T02:08:38.435Z,10.90
2023-05-22T02:14:17.362Z,10.75
2023-05-22T02:43:01.850Z,5.35
2023-05-22T03:00:17.834Z,7.60
2023-05-22T03:05:34.960Z,10.63
2023-05-22T03:11:16.868Z,6.20
2023-05-22T03:17:00.848Z,4.38
2023-05-22T03:22:48.929Z,5.75
2023-05-22T03:28:12.488Z,8.40
2023-05-22T03:34:24.071Z,9.65
2023-05-22T03:39:46.889Z,7.75
2023-05-22T03:45:46.920Z,8.63
2023-05-22T03:51:10.619Z,6.95
2023-05-22T03:56:39.240Z,7.45
2023-05-22T04:02:24.527Z,9.18
2023-05-22T04:08:22.320Z,8.93
2023-05-22T04:13:37.609Z,7.82
2023-05-22T04:18:59.646Z,9.02
2023-05-22T04:30:40.793Z,8.32
2023-05-22T04:42:12.337Z,13.40
2023-05-22T04:59:21.025Z,9.45
2023-05-22T05:04:52.093Z,4.80
2023-05-22T05:10:15.864Z,6.20
2023-05-22T05:21:43.919Z,10.07
2023-05-22T05:39:19.896Z,13.45
2023-05-22T05:44:23.659Z,16.25
2023-05-22T05:49:27.418Z,12.40
2023-05-22T05:54:30.200Z,10.02
2023-05-22T05:59:38.336Z,15.55
2023-05-22T06:04:59.328Z,13.38
2023-05-22T06:10:09.864Z,18.38
2023-05-22T06:15:18.145Z,18.15
2023-05-22T06:20:20.793Z,14.90
2023-05-22T06:25:26.316Z,15.77
2023-05-22T06:30:39.631Z,10.18
2023-05-22T06:35:46.528Z,5.80
2023-05-22T06:40:48.958Z,5.95
2023-05-22T06:45:58.350Z,6.03
2023-05-22T06:51:06.863Z,9.00
2023-05-22T06:56:09.643Z,11.77
2023-05-22T07:01:34.300Z,8.38
2023-05-22T07:06:43.961Z,8.38
2023-05-22T07:11:46.876Z,10.75
2023-05-22T07:16:51.588Z,10.35
2023-05-22T07:22:01.146Z,14.23
2023-05-22T07:27:04.765Z,15.38
2023-05-22T07:32:09.118Z,15.20
2023-05-22T07:37:13.291Z,12.02
2023-05-22T07:42:17.665Z,11.55
2023-05-22T07:47:27.281Z,10.43
2023-05-22T07:52:29.702Z,10.45
2023-05-22T07:57:33.154Z,8.25
2023-05-22T08:02:44.070Z,15.02
2023-05-22T08:07:46.593Z,14.82
2023-05-22T08:12:48.992Z,11.43
2023-05-22T08:17:51.225Z,10.52
2023-05-22T08:22:54.734Z,18.83
2023-05-22T08:27:57.021Z,11.32
2023-05-22T08:32:59.418Z,10.52
2023-05-22T08:38:01.942Z,15.60
2023-05-22T08:43:07.552Z,9.80
2023-05-22T08:53:13.526Z,8.93
2023-05-22T08:58:16.476Z,11.80
2023-05-22T09:03:21.876Z,12.43
2023-05-22T09:08:24.529Z,9.88
2023-05-22T09:13:30.689Z,9.38
2023-05-22T09:18:33.217Z,10.13
2023-05-22T09:23:35.703Z,11.32
2023-05-22T09:28:38.106Z,10.38
2023-05-22T09:33:43.759Z,10.13
2023-05-22T09:38:46.359Z,6.10
2023-05-22T09:43:51.769Z,6.78
2023-05-22T09:48:54.628Z,9.30
2023-05-22T09:54:00.911Z,9.85
2023-05-22T09:59:04.170Z,7.85
2023-05-22T10:04:08.385Z,11.43
2023-05-22T10:09:19.066Z,7.70
2023-05-22T10:14:22.563Z,6.93
2023-05-22T10:19:27.512Z,7.93
2023-05-22T10:24:30.416Z,4.80
2023-05-22T10:29:36.840Z,6.28
2023-05-22T10:34:48.505Z,8.18
2023-05-22T10:40:09.406Z,8.85
2023-05-22T10:45:12.250Z,11.02
2023-05-22T10:50:14.790Z,10.27
2023-05-22T10:55:23.047Z,7.32
2023-05-22T11:00:25.546Z,8.35
2023-05-22T11:05:31.950Z,8.55
2023-05-22T11:10:52.201Z,6.40
2023-05-22T11:15:58.096Z,3.72
2023-05-22T11:21:01.265Z,6.80
2023-05-22T11:26:20.289Z,7.30
2023-05-22T11:31:23.656Z,7.75
2023-05-22T11:36:27.982Z,5.22
2023-05-22T11:41:34.177Z,4.45
2023-05-22T11:46:36.630Z,7.90
2023-05-22T11:51:42.463Z,4.80
2023-05-22T11:56:45.756Z,7.20
2023-05-22T12:01:49.672Z,8.52
2023-05-22T12:06:52.478Z,6.57
2023-05-22T12:12:00.619Z,7.70
2023-05-22T12:17:04.846Z,11.50
2023-05-22T12:22:07.435Z,6.82
2023-05-22T12:27:13.231Z,8.32
2023-05-22T12:32:15.693Z,5.50
2023-05-22T12:37:26.192Z,5.80
2023-05-22T12:42:29.229Z,10.02
2023-05-22T12:47:31.478Z,8.48
2023-05-22T12:52:33.765Z,5.53
2023-05-22T12:57:36.208Z,7.95
2023-05-22T13:02:38.877Z,7.32
2023-05-22T13:07:41.171Z,4.00
2023-05-22T13:12:45.050Z,3.88
2023-05-22T13:17:47.401Z,3.63
2023-05-22T13:22:49.929Z,3.53
2023-05-22T13:27:52.302Z,4.80
2023-05-22T13:32:54.643Z,3.72
2023-05-22T13:37:57.057Z,4.90
2023-05-22T13:42:59.763Z,5.80
2023-05-22T13:48:02.308Z,4.68
2023-05-22T13:53:05.781Z,4.38
2023-05-22T13:58:08.288Z,4.57
2023-05-22T14:03:12.119Z,5.50
2023-05-22T14:08:14.613Z,7.22
2023-05-22T14:13:17.040Z,4.35
2023-05-22T14:18:19.467Z,4.85
2023-05-22T14:23:21.813Z,10.50
2023-05-22T14:28:24.620Z,3.63
2023-05-22T14:33:26.822Z,15.07
2023-05-22T14:38:33.321Z,5.65
2023-05-22T14:43:37.421Z,4.80
2023-05-22T14:48:39.846Z,10.50
2023-05-22T14:53:42.211Z,9.70
2023-05-22T14:58:44.683Z,11.73
2023-05-22T15:03:47.499Z,8.05
2023-05-22T15:08:49.945Z,9.00
2023-05-22T15:13:54.559Z,8.02
2023-05-22T15:18:56.912Z,8.82
2023-05-22T15:23:59.438Z,5.20
2023-05-22T15:29:01.881Z,6.22
2023-05-22T15:34:04.211Z,9.57
2023-05-22T15:39:06.838Z,5.45
2023-05-22T15:44:09.989Z,6.03
2023-05-22T15:49:12.329Z,9.10
2023-05-22T15:54:14.633Z,8.50
2023-05-22T15:59:17.026Z,8.80
2023-05-22T16:04:19.343Z,6.78
2023-05-22T16:09:21.750Z,14.02
2023-05-22T16:14:24.046Z,10.07
2023-05-22T16:19:29.008Z,8.40
2023-05-22T16:24:31.706Z,7.55
2023-05-22T16:29:34.090Z,6.72
2023-05-22T16:34:36.814Z,6.97
2023-05-22T16:39:41.553Z,8.80
2023-05-22T16:44:44.160Z,7.07
2023-05-22T16:49:46.692Z,7.93
2023-05-22T16:54:49.364Z,9.65
2023-05-22T16:59:51.658Z,11.52
2023-05-22T17:04:54.744Z,9.35
2023-05-22T17:09:57.167Z,7.63
2023-05-22T17:14:59.891Z,9.25
2023-05-22T17:20:02.405Z,7.63
2023-05-22T17:25:07.254Z,10.52
2023-05-22T17:30:09.886Z,9.93
2023-05-22T17:35:12.224Z,12.82
2023-05-22T17:40:14.696Z,13.32
2023-05-22T17:45:16.966Z,10.32
2023-05-22T17:50:19.356Z,8.82
2023-05-22T17:55:21.763Z,9.77
2023-05-22T18:00:24.247Z,8.95
2023-05-22T18:05:26.799Z,8.77
2023-05-22T18:10:29.478Z,10.95
2023-05-22T18:15:33.176Z,13.00
2023-05-22T18:20:38.073Z,20.38
2023-05-22T18:25:40.736Z,18.10
2023-05-22T18:30:45.196Z,20.67
2023-05-22T18:35:47.572Z,31.02
2023-05-22T18:40:50.009Z,37.75
2023-05-22T18:45:52.441Z,26.25
2023-05-22T18:50:57.740Z,18.35
2023-05-22T18:56:00.195Z,14.75
2023-05-22T19:01:02.484Z,11.90
2023-05-22T19:06:05.063Z,11.73
2023-05-22T19:11:07.491Z,11.15
2023-05-22T19:16:09.827Z,11.10
2023-05-22T19:21:12.622Z,12.07
2023-05-22T19:26:15.073Z,16.45
2023-05-22T19:31:17.975Z,18.15
2023-05-22T19:36:20.324Z,14.88
2023-05-22T19:41:23.268Z,11.27
2023-05-22T19:46:25.654Z,10.10
2023-05-22T19:51:28.278Z,11.18
2023-05-22T19:56:30.630Z,13.10
2023-05-22T20:01:33.153Z,14.32
2023-05-22T20:06:36.801Z,7.63
2023-05-22T20:11:39.236Z,6.60
2023-05-22T20:16:41.756Z,8.85
2023-05-22T20:21:44.408Z,11.20
2023-05-22T20:26:47.390Z,10.85
2023-05-22T20:31:55.011Z,9.45
2023-05-22T20:36:58.770Z,9.48
2023-05-22T20:42:04.070Z,12.57
2023-05-22T20:47:06.559Z,13.88
2023-05-22T20:52:10.327Z,19.10
2023-05-22T20:57:12.755Z,18.52
2023-05-22T21:02:15.077Z,14.63
2023-05-22T21:07:18.727Z,8.52
2023-05-22T21:12:21.177Z,6.97
2023-05-22T21:17:23.770Z,5.97
2023-05-22T21:22:26.180Z,7.43
2023-05-22T21:27:28.474Z,11.75
2023-05-22T21:32:30.998Z,10.27
2023-05-22T21:37:33.806Z,7.35
2023-05-22T21:42:45.962Z,7.50
2023-05-22T21:47:49.728Z,14.32
2023-05-22T21:52:52.109Z,13.27
2023-05-22T21:57:55.849Z,24.00
2023-05-22T22:02:58.278Z,13.15
2023-05-22T22:08:00.645Z,5.93
2023-05-22T22:13:03.544Z,6.75
2023-05-22T22:18:05.988Z,18.70
2023-05-22T22:23:08.412Z,29.42
2023-05-22T22:28:10.871Z,20.15
2023-05-22T22:33:13.294Z,11.93
2023-05-22T22:38:16.674Z,13.40
2023-05-22T22:43:19.312Z,20.52
2023-05-22T22:48:22.979Z,22.00
2023-05-22T22:53:25.386Z,19.27
2023-05-22T22:58:27.983Z,14.23
2023-05-22T23:03:30.382Z,10.30
2023-05-22T23:08:32.759Z,8.27
2023-05-22T23:13:35.181Z,6.05
2023-05-22T23:18:37.586Z,4.88
2023-05-22T23:23:39.924Z,4.93
2023-05-22T23:28:42.210Z,7.10
2023-05-22T23:33:44.621Z,5.03
2023-05-22T23:38:47.365Z,5.10
2023-05-22T23:43:50.126Z,6.38
2023-05-22T23:48:52.580Z,5.18
2023-05-22T23:53:55.112Z,5.43
2023-05-22T23:58:57.504Z,5.68
